Time;durP1;ratioP1;P1;durP2;ratioP2;P2;SDS_P1;SDS_P2;PMS_P1;PMS_P2;Temp;Humidity;BMP_temperature;BMP_pressure;BME280_temperature;BME280_humidity;BME280_pressure;Samples;Min_cycle;Max_cycle;Signal;HPM_P1;HPM_P2
2021/05/07 00:01:12;;;;;;;10.45;6.07;;;307.30;2022.40;;;;;;5033124;28;20044;-61
2021/05/07 00:03:39;;;;;;;9.68;5.68;;;307.30;2022.40;;;;;;5028995;28;20026;-62
2021/05/07 00:06:06;;;;;;;10.23;5.72;;;307.20;2048.00;;;;;;5029002;28;20030;-58
2021/05/07 00:08:34;;;;;;;10.77;6.00;;;307.30;2048.00;;;;;;5031240;28;20060;-58
2021/05/07 00:11:08;;;;;;;10.38;5.78;;;307.30;2022.40;;;;;;5033620;28;20493;-58
2021/05/07 00:13:35;;;;;;;10.93;5.70;;;307.30;2022.40;;;;;;5031849;28;20497;-58
2021/05/07 00:16:01;;;;;;;9.30;5.95;;;307.40;2022.40;;;;;;5030849;28;20302;-59
2021/05/07 00:18:27;;;;;;;9.55;5.60;;;307.30;2022.40;;;;;;5025759;28;20048;-59
2021/05/07 00:20:53;;;;;;;11.05;5.85;;;307.30;2022.40;;;;;;5031155;28;20033;-57
2021/05/07 00:23:19;;;;;;;9.77;5.30;;;307.30;2048.00;;;;;;5031461;28;20033;-59
2021/05/07 00:25:46;;;;;;;11.07;5.65;;;307.30;2048.00;;;;;;5034585;28;20079;-59
2021/05/07 00:28:13;;;;;;;12.02;5.72;;;307.30;2048.00;;;;;;5033682;28;20033;-61
2021/05/07 00:30:40;;;;;;;13.10;6.35;;;307.30;2048.00;;;;;;5034580;28;20475;-57
2021/05/07 00:33:07;;;;;;;10.80;6.15;;;307.30;2048.00;;;;;;5036093;28;20205;-57
2021/05/07 00:35:33;;;;;;;9.48;6.22;;;307.40;2048.00;;;;;;5033291;28;20029;-57
2021/05/07 00:37:59;;;;;;;11.85;6.15;;;307.40;2048.00;;;;;;5031857;28;20037;-56
2021/05/07 00:40:25;;;;;;;10.65;5.70;;;307.30;2048.00;;;;;;5030976;28;20033;-57
2021/05/07 00:42:51;;;;;;;10.10;6.10;;;307.40;2048.00;;;;;;5030670;28;20017;-58
2021/05/07 00:45:18;;;;;;;9.55;5.65;;;307.30;2073.60;;;;;;5032254;28;20098;-61
2021/05/07 00:47:46;;;;;;;9.27;5.90;;;307.40;2048.00;;;;;;5030809;28;20387;-59
2021/05/07 00:50:11;;;;;;;8.32;5.10;;;307.50;2048.00;;;;;;5033792;28;20021;-58
2021/05/07 00:52:37;;;;;;;12.98;5.95;;;307.50;2048.00;;;;;;5032744;28;20025;-57
2021/05/07 00:55:08;;;;;;;10.18;5.43;;;307.50;2048.00;;;;;;5033532;28;20113;-57
2021/05/07 00:57:35;;;;;;;9.02;5.70;;;307.50;2048.00;;;;;;5032776;28;20025;-57
2021/05/07 01:00:02;;;;;;;10.75;5.55;;;307.60;2048.00;;;;;;5033392;28;20041;-57
2021/05/07 01:02:28;;;;;;;9.20;5.47;;;307.60;2048.00;;;;;;5028432;28;20475;-60
2021/05/07 01:04:54;;;;;;;10.15;5.40;;;307.60;2048.00;;;;;;5030848;28;20032;-57
2021/05/07 01:07:20;;;;;;;10.48;5.45;;;307.50;2048.00;;;;;;5034046;28;20018;-57
2021/05/07 01:09:49;;;;;;;9.32;5.88;;;307.50;2048.00;;;;;;5032901;28;20029;-56
2021/05/07 01:12:15;;;;;;;10.45;5.85;;;307.60;2048.00;;;;;;5032876;28;20104;-57
2021/05/07 01:14:41;;;;;;;9.40;5.70;;;307.60;2048.00;;;;;;5032994;28;20029;-56
2021/05/07 01:17:06;;;;;;;8.82;5.47;;;307.60;2048.00;;;;;;5034387;28;20028;-58
2021/05/07 01:19:32;;;;;;;10.18;6.13;;;307.60;2048.00;;;;;;5033660;28;20633;-56
2021/05/07 01:21:58;;;;;;;10.95;5.97;;;307.60;2048.00;;;;;;5031512;28;20055;-57
2021/05/07 01:24:27;;;;;;;9.27;5.90;;;307.60;2048.00;;;;;;5028162;28;20387;-58
2021/05/07 01:26:53;;;;;;;9.00;5.68;;;307.70;2022.40;;;;;;5027197;28;20038;-62
2021/05/07 01:29:19;;;;;;;9.90;5.75;;;307.70;2048.00;;;;;;5032810;28;20025;-63
2021/05/07 01:31:46;;;;;;;12.23;5.70;;;307.80;2022.40;;;;;;5025224;28;20038;-62
2021/05/07 01:34:12;;;;;;;10.20;5.97;;;307.80;2022.40;;;;;;5032540;28;20061;-60
2021/05/07 01:36:38;;;;;;;10.57;5.85;;;333.00;2048.00;;;;;;5033257;28;20048;-64
2021/05/07 01:39:04;;;;;;;12.02;5.88;;;307.80;2022.40;;;;;;5030525;28;20074;-61
2021/05/07 01:41:30;;;;;;;10.02;5.78;;;308.00;2022.40;;;;;;5026412;28;20336;-61
2021/05/07 01:43:59;;;;;;;9.13;5.70;;;308.00;2022.40;;;;;;5041946;28;20534;-60
2021/05/07 01:46:24;;;;;;;9.57;5.70;;;308.10;1996.80;;;;;;5031332;28;20433;-59
2021/05/07 01:48:50;;;;;;;8.15;5.75;;;332.80;2022.40;;;;;;5030244;28;20017;-63
2021/05/07 01:51:16;;;;;;;10.10;5.72;;;332.90;2022.40;;;;;;5032750;28;20475;-59
2021/05/07 01:53:41;;;;;;;13.25;5.85;;;332.90;2022.40;;;;;;5033365;28;20022;-62
2021/05/07 01:56:07;;;;;;;12.40;6.03;;;333.00;2022.40;;;;;;5029301;28;20036;-59
2021/05/07 01:58:33;;;;;;;9.40;5.57;;;333.00;2022.40;;;;;;5027908;28;20113;-59
2021/05/07 02:00:59;;;;;;;10.13;6.03;;;333.10;1996.80;;;;;;5031279;28;20049;-59
2021/05/07 02:03:24;;;;;;;9.65;5.97;;;333.10;1996.80;;;;;;5032190;28;20036;-64
2021/05/07 02:05:50;;;;;;;8.70;5.43;;;333.10;1996.80;;;;;;5030221;28;20051;-59
2021/05/07 02:08:17;;;;;;;11.45;5.93;;;333.20;1971.20;;;;;;5031368;28;20017;-63
2021/05/07 02:10:42;;;;;;;9.52;5.93;;;333.20;1945.60;;;;;;5033159;28;20082;-62
2021/05/07 02:13:10;;;;;;;10.30;5.90;;;333.20;1945.60;;;;;;5032516;28;20698;-59
2021/05/07 02:15:36;;;;;;;11.48;5.55;;;333.30;1945.60;;;;;;5031327;28;20026;-59
2021/05/07 02:18:03;;;;;;;8.48;5.43;;;333.30;1945.60;;;;;;5029637;28;20021;-60
2021/05/07 02:20:29;;;;;;;8.85;5.20;;;333.30;1945.60;;;;;;5030555;28;20037;-61
2021/05/07 02:22:56;;;;;;;10.73;5.32;;;333.20;1945.60;;;;;;5032315;28;20034;-59
2021/05/07 02:25:24;;;;;;;9.15;5.20;;;333.30;1945.60;;;;;;5030522;28;20025;-62
2021/05/07 02:27:51;;;;;;;9.25;5.40;;;333.30;1945.60;;;;;;5027425;28;20391;-62
2021/05/07 02:30:23;;;;;;;7.68;4.88;;;333.30;1920.00;;;;;;5030963;28;20029;-61
2021/05/07 02:32:49;;;;;;;7.75;4.82;;;333.40;1894.40;;;;;;5031490;28;20541;-57
2021/05/07 02:35:14;;;;;;;9.00;5.65;;;333.40;1920.00;;;;;;5032310;28;20034;-60
2021/05/07 02:37:41;;;;;;;10.75;6.45;;;333.40;1920.00;;;;;;5027970;28;20482;-61
2021/05/07 02:40:08;;;;;;;10.63;5.50;;;333.40;1920.00;;;;;;5031234;28;20037;-60
2021/05/07 02:42:35;;;;;;;11.50;5.07;;;333.40;1971.20;;;;;;5024502;28;20026;-60
2021/05/07 02:45:03;;;;;;;8.25;5.13;;;333.40;1971.20;;;;;;5026507;28;20475;-62
2021/05/07 02:47:31;;;;;;;9.63;5.82;;;333.50;1971.20;;;;;;5029077;28;20028;-61
2021/05/07 02:49:57;;;;;;;9.38;5.18;;;333.60;1945.60;;;;;;5031208;28;20025;-59
2021/05/07 02:52:23;;;;;;;8.48;5.20;;;333.60;1971.20;;;;;;5030864;28;20056;-59
2021/05/07 02:54:50;;;;;;;8.95;5.40;;;333.60;1971.20;;;;;;5030073;28;20732;-59
2021/05/07 02:57:15;;;;;;;10.20;5.80;;;333.60;1971.20;;;;;;5022393;28;20021;-62
2021/05/07 02:59:41;;;;;;;10.48;6.47;;;333.60;1971.20;;;;;;5015825;28;20037;-59
2021/05/07 03:02:07;;;;;;;10.80;6.32;;;333.60;1971.20;;;;;;5013595;28;20511;-58
2021/05/07 03:04:33;;;;;;;11.18;6.80;;;333.60;1971.20;;;;;;5013380;28;20463;-61
2021/05/07 03:06:59;;;;;;;16.88;8.43;;;333.60;1971.20;;;;;;5013112;28;20029;-60
2021/05/07 03:09:25;;;;;;;14.43;8.30;;;333.50;1996.80;;;;;;5013092;28;20029;-61
2021/05/07 03:11:52;;;;;;;13.23;7.43;;;333.50;1971.20;;;;;;5012699;28;20450;-58
2021/05/07 03:14:18;;;;;;;13.07;7.60;;;333.60;1971.20;;;;;;5012408;28;20080;-62
2021/05/07 03:16:45;;;;;;;12.00;7.72;;;333.60;1971.20;;;;;;5016452;28;20113;-58
2021/05/07 03:19:10;;;;;;;13.55;8.07;;;333.60;1971.20;;;;;;5014248;28;20430;-59
2021/05/07 03:21:37;;;;;;;14.55;7.97;;;333.60;1996.80;;;;;;5020471;28;20128;-61
2021/05/07 03:24:04;;;;;;;19.88;10.77;;;333.60;1996.80;;;;;;5032456;28;20538;-62
2021/05/07 03:26:30;;;;;;;19.55;10.18;;;333.50;1996.80;;;;;;5032975;28;20029;-57
2021/05/07 03:28:56;;;;;;;19.30;10.50;;;333.60;1996.80;;;;;;5016529;28;20025;-61
2021/05/07 03:31:21;;;;;;;17.40;10.00;;;333.60;1996.80;;;;;;5027841;28;20029;-57
2021/05/07 03:33:47;;;;;;;14.90;8.43;;;333.60;1996.80;;;;;;5031557;28;20034;-58
2021/05/07 03:36:13;;;;;;;17.13;7.88;;;333.60;2022.40;;;;;;5033059;28;20038;-57
2021/05/07 03:38:40;;;;;;;14.80;7.78;;;333.50;2022.40;;;;;;5031875;28;20410;-59
2021/05/07 03:41:05;;;;;;;13.40;7.78;;;333.60;2022.40;;;;;;5032201;28;20041;-60
2021/05/07 03:43:31;;;;;;;12.75;7.72;;;333.60;2022.40;;;;;;5032288;28;20083;-58
2021/05/07 03:45:57;;;;;;;17.02;8.07;;;333.60;2048.00;;;;;;5032889;28;20044;-60
2021/05/07 03:48:23;;;;;;;12.73;7.80;;;333.60;2048.00;;;;;;5032740;28;20018;-61
2021/05/07 03:50:53;;;;;;;11.90;7.88;;;333.60;2048.00;;;;;;5033164;28;20079;-59
2021/05/07 03:53:19;;;;;;;12.60;7.95;;;333.70;2022.40;;;;;;5032028;28;20108;-59
2021/05/07 03:55:48;;;;;;;13.75;7.55;;;333.70;2048.00;;;;;;5032265;28;20026;-57
2021/05/07 03:58:14;;;;;;;13.70;7.85;;;358.40;2048.00;;;;;;5031572;28;20017;-59
2021/05/07 04:00:40;;;;;;;18.30;11.20;;;358.40;2048.00;;;;;;5023762;28;20099;-57
2021/05/07 04:03:09;;;;;;;21.67;15.13;;;358.40;2048.00;;;;;;5031413;28;20088;-61
2021/05/07 04:05:35;;;;;;;16.85;9.73;;;358.40;1996.80;;;;;;5031242;28;20052;-60
2021/05/07 04:10:43;;;;;;;11.60;5.80;;;358.50;1945.60;;;;;;5032083;28;20040;-63
2021/05/07 04:15:38;;;;;;;13.05;5.47;;;358.60;1920.00;;;;;;5032421;28;20026;-59
2021/05/07 04:18:04;;;;;;;39.83;17.13;;;358.70;1920.00;;;;;;5032126;28;20017;-58
2021/05/07 04:20:30;;;;;;;84.95;32.20;;;358.70;1894.40;;;;;;5035568;28;20026;-57
2021/05/07 04:22:55;;;;;;;170.93;64.55;;;358.80;1894.40;;;;;;5035892;28;20025;-60
2021/05/07 04:25:21;;;;;;;18.80;9.07;;;358.80;1894.40;;;;;;5036356;28;20029;-59
2021/05/07 04:27:47;;;;;;;30.08;13.13;;;358.90;1894.40;;;;;;5035692;28;20026;-59
2021/05/07 04:30:13;;;;;;;89.32;36.28;;;358.90;1894.40;;;;;;5035819;28;20025;-57
2021/05/07 04:32:39;;;;;;;36.00;16.83;;;358.90;1868.80;;;;;;5035482;28;20030;-59
2021/05/07 04:35:05;;;;;;;32.53;13.88;;;358.90;1868.80;;;;;;5036369;28;20083;-58
2021/05/07 04:37:31;;;;;;;12.05;6.53;;;359.00;1894.40;;;;;;5035356;28;20026;-57
2021/05/07 04:39:56;;;;;;;35.78;18.95;;;359.00;1868.80;;;;;;5035308;28;20067;-59
2021/05/07 04:42:23;;;;;;;38.13;21.75;;;358.90;1894.40;;;;;;5035388;28;20040;-61
2021/05/07 04:44:49;;;;;;;38.58;25.75;;;359.00;1868.80;;;;;;5035165;28;20479;-59
2021/05/07 04:47:14;;;;;;;23.52;14.43;;;359.00;1868.80;;;;;;5034119;28;20053;-58
2021/05/07 04:49:40;;;;;;;17.52;7.57;;;359.00;1868.80;;;;;;5036617;28;20409;-57
2021/05/07 04:52:07;;;;;;;12.40;6.45;;;359.10;1868.80;;;;;;5036507;28;20021;-61
2021/05/07 04:54:34;;;;;;;10.55;5.65;;;359.20;1868.80;;;;;;5035974;28;20395;-60
2021/05/07 04:57:00;;;;;;;10.60;5.45;;;359.20;1868.80;;;;;;5036077;28;20030;-58
2021/05/07 04:59:26;;;;;;;9.38;5.63;;;359.20;1843.20;;;;;;5035765;28;20029;-59
2021/05/07 05:01:52;;;;;;;12.60;5.75;;;359.30;1843.20;;;;;;5035859;28;20049;-62
2021/05/07 05:04:17;;;;;;;10.45;5.07;;;359.30;1843.20;;;;;;5036176;28;20379;-60
2021/05/07 05:06:43;;;;;;;11.05;6.53;;;359.30;1843.20;;;;;;5036098;28;20022;-58
2021/05/07 05:09:09;;;;;;;10.55;5.70;;;359.30;1843.20;;;;;;5035966;28;20072;-58
2021/05/07 05:11:34;;;;;;;12.38;6.35;;;384.00;1843.20;;;;;;5035836;28;20018;-62
2021/05/07 05:14:00;;;;;;;12.63;7.07;;;384.10;1843.20;;;;;;5035763;28;20057;-59
2021/05/07 05:16:26;;;;;;;9.90;6.18;;;384.20;1843.20;;;;;;5035892;28;20100;-60
2021/05/07 05:18:52;;;;;;;12.88;6.20;;;384.20;1817.60;;;;;;5035822;28;20152;-60
2021/05/07 05:21:18;;;;;;;10.82;6.10;;;384.30;1817.60;;;;;;5035434;28;20065;-60
2021/05/07 05:23:43;;;;;;;11.23;6.43;;;384.30;1817.60;;;;;;5034171;28;20029;-57
2021/05/07 05:26:09;;;;;;;11.13;6.15;;;384.40;1817.60;;;;;;5035445;28;20033;-59
2021/05/07 05:28:38;;;;;;;10.35;5.82;;;384.30;1817.60;;;;;;5035540;28;20448;-60
2021/05/07 05:31:04;;;;;;;12.80;6.47;;;384.50;1817.60;;;;;;5035377;28;20022;-59
2021/05/07 05:33:29;;;;;;;10.48;5.95;;;384.50;1792.00;;;;;;5035346;28;20018;-60
2021/05/07 05:35:55;;;;;;;9.13;5.10;;;384.50;1792.00;;;;;;5035462;28;20034;-61
2021/05/07 05:38:21;;;;;;;9.93;4.88;;;384.50;1792.00;;;;;;5035172;28;20501;-61
2021/05/07 05:40:47;;;;;;;20.33;5.25;;;384.60;1766.40;;;;;;5035011;28;20422;-57
2021/05/07 05:43:14;;;;;;;15.43;5.43;;;384.70;1766.40;;;;;;5035109;28;20113;-59
2021/05/07 05:45:40;;;;;;;13.38;5.43;;;384.80;1766.40;;;;;;5034988;28;20025;-62
2021/05/07 05:48:09;;;;;;;9.38;5.05;;;384.90;1766.40;;;;;;5035152;28;20028;-60
2021/05/07 05:50:40;;;;;;;12.73;5.60;;;409.60;1792.00;;;;;;5034838;28;20021;-59
2021/05/07 05:53:06;;;;;;;11.27;4.93;;;409.60;1792.00;;;;;;5035047;28;20025;-62
2021/05/07 05:55:32;;;;;;;13.23;5.40;;;409.60;1792.00;;;;;;5034631;28;20028;-59
2021/05/07 05:57:58;;;;;;;12.52;5.30;;;409.60;1766.40;;;;;;5034789;28;20037;-63
2021/05/07 06:00:24;;;;;;;11.43;5.20;;;409.70;1792.00;;;;;;5034480;28;20560;-61
2021/05/07 06:02:50;;;;;;;13.82;5.32;;;409.80;1766.40;;;;;;5034796;28;20029;-59
2021/05/07 06:05:17;;;;;;;13.77;5.35;;;409.80;1766.40;;;;;;5034793;28;20025;-59
2021/05/07 06:07:43;;;;;;;13.40;4.82;;;409.90;1766.40;;;;;;5034737;28;20025;-60
2021/05/07 06:10:11;;;;;;;13.70;5.30;;;410.00;1766.40;;;;;;5034504;28;20421;-60
2021/05/07 06:12:38;;;;;;;9.88;5.00;;;410.10;1766.40;;;;;;5033136;28;20111;-58
2021/05/07 06:15:05;;;;;;;9.45;5.35;;;410.20;1766.40;;;;;;5034599;28;20175;-58
2021/05/07 06:17:30;;;;;;;12.00;5.40;;;410.20;1766.40;;;;;;5033920;28;20049;-59
2021/05/07 06:20:02;;;;;;;12.80;5.30;;;410.20;1766.40;;;;;;5034376;28;20509;-59
2021/05/07 06:22:28;;;;;;;13.60;4.80;;;410.20;1766.40;;;;;;5034490;28;20029;-57
2021/05/07 06:24:55;;;;;;;16.15;5.20;;;410.30;1766.40;;;;;;5034291;28;20030;-62
2021/05/07 06:27:20;;;;;;;14.05;4.95;;;410.40;1766.40;;;;;;5033499;28;20021;-61
2021/05/07 06:29:46;;;;;;;16.90;5.00;;;410.30;1740.80;;;;;;5033306;28;20104;-57
2021/05/07 06:32:12;;;;;;;14.02;4.88;;;410.40;1740.80;;;;;;5033384;28;20026;-61
2021/05/07 06:34:37;;;;;;;10.85;4.72;;;410.50;1740.80;;;;;;5033528;28;20013;-61
2021/05/07 06:37:03;;;;;;;9.10;4.68;;;435.20;1740.80;;;;;;5031036;28;20021;-58
2021/05/07 06:39:30;;;;;;;9.77;5.03;;;435.40;1740.80;;;;;;5033529;28;20022;-57
2021/05/07 06:41:57;;;;;;;7.22;4.88;;;435.40;1740.80;;;;;;5032795;28;20025;-62
2021/05/07 06:44:24;;;;;;;11.23;5.70;;;435.20;1766.40;;;;;;5030205;28;20029;-60
2021/05/07 06:46:50;;;;;;;12.23;5.60;;;435.50;1792.00;;;;;;5033531;28;20025;-58
2021/05/07 06:49:16;;;;;;;12.20;6.10;;;435.60;1766.40;;;;;;5032685;28;20084;-57
2021/05/07 06:51:41;;;;;;;14.52;7.35;;;435.60;1766.40;;;;;;5033554;28;20014;-59
2021/05/07 06:54:08;;;;;;;19.38;8.48;;;435.60;1766.40;;;;;;5033795;28;20386;-62
2021/05/07 06:56:34;;;;;;;17.90;7.90;;;435.60;1792.00;;;;;;5033648;28;20032;-62
2021/05/07 06:59:00;;;;;;;17.65;8.98;;;435.80;1766.40;;;;;;5033708;28;20105;-63
2021/05/07 07:01:26;;;;;;;18.50;10.00;;;436.00;1740.80;;;;;;5033602;28;20144;-63
2021/05/07 07:03:52;;;;;;;14.25;7.88;;;436.10;1766.40;;;;;;5033578;28;20034;-64
2021/05/07 07:06:18;;;;;;;13.52;7.55;;;460.80;1766.40;;;;;;5033555;28;20029;-60
2021/05/07 07:08:44;;;;;;;11.57;7.03;;;460.80;1740.80;;;;;;5033069;28;20417;-59
2021/05/07 07:11:10;;;;;;;12.30;7.55;;;460.80;1766.40;;;;;;5032624;28;20779;-58
2021/05/07 07:13:36;;;;;;;15.25;9.50;;;460.90;1740.80;;;;;;5032928;28;20056;-60
2021/05/07 07:16:01;;;;;;;13.73;6.53;;;461.00;1740.80;;;;;;5032738;28;20108;-61
2021/05/07 07:18:27;;;;;;;14.90;8.38;;;461.10;1715.20;;;;;;5032673;28;20025;-59
2021/05/07 07:20:53;;;;;;;13.15;5.65;;;461.30;1715.20;;;;;;5033291;28;20045;-58
2021/05/07 07:23:18;;;;;;;13.80;6.65;;;461.40;1638.40;;;;;;5033316;28;20032;-66
2021/05/07 07:25:44;;;;;;;16.52;7.10;;;461.50;1664.00;;;;;;5033563;28;20030;-59
2021/05/07 07:28:11;;;;;;;11.50;6.47;;;461.50;1664.00;;;;;;5033228;28;20075;-58
2021/05/07 07:30:37;;;;;;;11.07;5.85;;;461.40;1664.00;;;;;;5033333;28;20061;-58
2021/05/07 07:33:03;;;;;;;10.02;5.90;;;461.50;1638.40;;;;;;5033260;28;20108;-58
2021/05/07 07:35:29;;;;;;;9.07;5.20;;;461.70;1612.80;;;;;;5032658;28;20159;-59
2021/05/07 07:37:55;;;;;;;11.18;6.50;;;461.60;1587.20;;;;;;5032901;28;20021;-61
2021/05/07 07:40:22;;;;;;;17.60;6.93;;;461.70;1612.80;;;;;;5032692;28;20100;-58
2021/05/07 07:42:47;;;;;;;15.88;9.10;;;461.70;1612.80;;;;;;5032579;28;20036;-59
2021/05/07 07:45:13;;;;;;;11.85;6.88;;;461.60;1612.80;;;;;;5032912;28;20351;-58
2021/05/07 07:47:39;;;;;;;12.48;5.90;;;461.60;1638.40;;;;;;5033228;28;20021;-58
2021/05/07 07:50:07;;;;;;;14.32;8.90;;;461.60;1664.00;;;;;;5033351;28;20025;-58
2021/05/07 07:52:34;;;;;;;14.60;6.80;;;461.50;1638.40;;;;;;5033461;28;20041;-58
2021/05/07 07:55:00;;;;;;;15.50;9.00;;;461.40;1638.40;;;;;;5035696;28;20526;-59
2021/05/07 07:57:26;;;;;;;9.43;5.43;;;461.40;1664.00;;;;;;5036548;28;20554;-58
2021/05/07 07:59:52;;;;;;;10.38;5.10;;;461.50;1664.00;;;;;;5037095;28;20116;-59
2021/05/07 08:02:18;;;;;;;12.18;7.63;;;461.50;1664.00;;;;;;5037114;28;20113;-58
2021/05/07 08:04:43;;;;;;;32.42;21.55;;;461.40;1689.60;;;;;;5037355;28;20100;-59
2021/05/07 08:07:09;;;;;;;20.33;11.00;;;461.30;1689.60;;;;;;5037225;28;20030;-58
2021/05/07 08:09:36;;;;;;;21.25;13.90;;;461.50;1689.60;;;;;;5036962;28;20028;-58
2021/05/07 08:12:02;;;;;;;13.32;7.80;;;461.40;1638.40;;;;;;5036634;28;20033;-60
2021/05/07 08:14:27;;;;;;;25.60;16.20;;;461.40;1612.80;;;;;;5036530;28;20479;-59
2021/05/07 08:16:53;;;;;;;40.33;26.52;;;461.30;1664.00;;;;;;5036749;28;20048;-58
2021/05/07 08:19:19;;;;;;;22.48;16.23;;;461.30;1664.00;;;;;;5036473;28;20052;-58
2021/05/07 08:21:45;;;;;;;27.20;13.02;;;461.40;1664.00;;;;;;5035926;28;20472;-59
2021/05/07 08:24:10;;;;;;;201.63;59.85;;;461.30;1664.00;;;;;;5034094;28;20067;-58
2021/05/07 08:26:36;;;;;;;452.02;101.70;;;461.20;1689.60;;;;;;5035554;28;20032;-59
2021/05/07 08:29:03;;;;;;;107.85;30.48;;;461.30;1689.60;;;;;;5034962;28;20026;-58
2021/05/07 08:31:29;;;;;;;116.40;38.22;;;461.40;1664.00;;;;;;5032445;28;20031;-58
2021/05/07 08:33:55;;;;;;;76.18;31.70;;;461.40;1664.00;;;;;;5034324;28;20450;-60
2021/05/07 08:36:21;;;;;;;83.30;43.38;;;461.50;1689.60;;;;;;5036621;28;20036;-58
2021/05/07 08:38:47;;;;;;;31.45;16.98;;;461.30;1689.60;;;;;;5034940;28;20067;-58
2021/05/07 08:41:13;;;;;;;29.83;15.18;;;461.40;1689.60;;;;;;5036325;28;20038;-59
2021/05/07 08:43:39;;;;;;;22.95;12.07;;;461.60;1715.20;;;;;;5035999;28;20029;-58
2021/05/07 08:46:06;;;;;;;13.00;7.90;;;461.70;1740.80;;;;;;5036243;28;20035;-59
2021/05/07 08:48:38;;;;;;;16.60;8.25;;;487.20;1715.20;;;;;;5036563;28;20032;-59
2021/05/07 08:51:03;;;;;;;14.65;8.68;;;461.70;1740.80;;;;;;5068137;28;20033;-58
2021/05/07 08:53:30;;;;;;;17.23;9.45;;;486.40;1740.80;;;;;;5035918;28;20032;-58
2021/05/07 08:55:56;;;;;;;17.55;10.00;;;486.40;1766.40;;;;;;5036271;28;20538;-58
2021/05/07 08:58:22;;;;;;;13.77;9.88;;;486.40;1817.60;;;;;;5035902;28;20033;-58
2021/05/07 09:00:48;;;;;;;14.32;8.88;;;486.40;1843.20;;;;;;5035373;28;20403;-58
2021/05/07 09:03:15;;;;;;;11.30;7.28;;;461.70;1868.80;;;;;;5036256;28;20032;-58
2021/05/07 09:05:41;;;;;;;11.00;6.63;;;461.60;1920.00;;;;;;5035379;28;20037;-58
2021/05/07 09:08:08;;;;;;;17.25;9.85;;;461.60;1945.60;;;;;;5035976;28;20032;-58
2021/05/07 09:10:45;;;;;;;14.85;9.57;;;461.60;1945.60;;;;;;5035882;28;20471;-58
2021/05/07 09:13:14;;;;;;;13.82;8.65;;;486.50;1945.60;;;;;;5035735;28;20025;-58
2021/05/07 09:15:50;;;;;;;13.60;8.32;;;486.70;1894.40;;;;;;5035835;28;20029;-58
2021/05/07 09:18:17;;;;;;;12.57;9.32;;;487.20;1817.60;;;;;;5027465;28;20083;-57
2021/05/07 09:20:48;;;;;;;13.38;9.35;;;512.00;1894.40;;;;;;5031277;28;20040;-57
2021/05/07 09:23:15;;;;;;;10.98;8.38;;;512.30;1792.00;;;;;;5034242;28;20017;-63
2021/05/07 09:25:43;;;;;;;13.30;8.30;;;512.40;1740.80;;;;;;5028844;28;20145;-64
2021/05/07 09:28:12;;;;;;;13.40;10.02;;;512.80;1689.60;;;;;;5033091;28;20064;-58
2021/05/07 09:30:39;;;;;;;11.60;8.20;;;537.60;1664.00;;;;;;5033299;28;20056;-63
2021/05/07 09:33:08;;;;;;;11.90;7.88;;;512.80;1587.20;;;;;;5034648;28;20100;-58
2021/05/07 09:35:34;;;;;;;16.75;11.18;;;512.70;1587.20;;;;;;5034776;28;20029;-59
2021/05/07 09:38:02;;;;;;;11.02;7.90;;;512.50;1612.80;;;;;;5035259;28;20105;-61
2021/05/07 09:40:28;;;;;;;10.27;7.28;;;512.20;1638.40;;;;;;5033394;28;20029;-63
2021/05/07 09:43:17;;;;;;;10.55;7.45;;;512.00;1664.00;;;;;;5035135;28;20014;-58
2021/05/07 09:45:46;;;;;;;9.68;6.72;;;487.20;1664.00;;;;;;5034975;28;20025;-59
2021/05/07 09:48:20;;;;;;;10.60;7.43;;;487.00;1664.00;;;;;;5050396;28;20031;-58
2021/05/07 09:50:47;;;;;;;12.23;7.45;;;486.90;1715.20;;;;;;5034789;28;20033;-61
2021/05/07 09:53:19;;;;;;;11.15;7.00;;;486.80;1740.80;;;;;;5034601;28;20021;-67
2021/05/07 09:55:46;;;;;;;7.75;5.60;;;486.60;1766.40;;;;;;5034858;28;20025;-60
2021/05/07 09:58:13;;;;;;;6.63;5.20;;;486.50;1817.60;;;;;;5034348;28;20025;-63
2021/05/07 10:00:39;;;;;;;8.90;5.10;;;486.50;1817.60;;;;;;5034564;28;20056;-58
2021/05/07 10:03:06;;;;;;;9.27;5.57;;;486.40;1843.20;;;;;;5034936;28;20018;-64
2021/05/07 10:05:33;;;;;;;10.48;6.00;;;461.70;1868.80;;;;;;5033123;28;20483;-58
2021/05/07 10:08:00;;;;;;;9.40;5.88;;;461.70;1894.40;;;;;;5034606;28;20032;-60
2021/05/07 10:10:27;;;;;;;9.45;7.20;;;461.60;1920.00;;;;;;5034479;28;20419;-57
2021/05/07 10:12:55;;;;;;;9.70;6.63;;;461.50;1945.60;;;;;;5034466;28;20025;-60
2021/05/07 10:15:27;;;;;;;8.20;6.60;;;461.60;1971.20;;;;;;5034317;28;20037;-64
2021/05/07 10:17:53;;;;;;;11.77;7.75;;;461.50;1971.20;;;;;;5032986;28;20435;-60
2021/05/07 10:20:37;;;;;;;12.85;7.65;;;461.50;1996.80;;;;;;5033988;28;20033;-58
2021/05/07 10:23:18;;;;;;;8.18;7.03;;;461.40;2022.40;;;;;;5034342;28;20024;-61
2021/05/07 10:25:58;;;;;;;12.38;9.45;;;461.40;2048.00;;;;;;5034265;28;20032;-58
2021/05/07 10:28:25;;;;;;;11.18;7.70;;;461.30;2048.00;;;;;;5034062;28;20025;-59
2021/05/07 10:31:07;;;;;;;10.88;7.00;;;461.30;2073.60;;;;;;5033974;28;20025;-58
2021/05/07 10:33:33;;;;;;;9.88;6.80;;;461.40;2073.60;;;;;;5032829;28;20036;-58
2021/05/07 10:35:58;;;;;;;18.65;11.93;;;461.50;2073.60;;;;;;5033868;28;20022;-58
2021/05/07 10:38:26;;;;;;;14.45;9.05;;;486.50;2048.00;;;;;;5033703;28;20024;-58
2021/05/07 10:41:12;;;;;;;11.98;6.63;;;486.70;2022.40;;;;;;5033808;28;20467;-58
2021/05/07 10:43:43;;;;;;;9.07;6.40;;;487.20;1945.60;;;;;;5033623;28;20038;-57
2021/05/07 10:46:22;;;;;;;9.43;6.28;;;487.20;1920.00;;;;;;5033844;28;20033;-61
2021/05/07 10:48:54;;;;;;;8.75;6.45;;;487.20;1868.80;;;;;;5033765;28;20493;-59
2021/05/07 10:51:20;;;;;;;8.48;6.30;;;512.00;1894.40;;;;;;5034039;28;20033;-58
2021/05/07 10:53:46;;;;;;;8.52;6.15;;;512.10;1868.80;;;;;;5033905;28;20030;-58
2021/05/07 10:56:25;;;;;;;7.22;5.05;;;512.10;1843.20;;;;;;5033823;28;20183;-57
2021/05/07 10:58:54;;;;;;;5.65;3.95;;;487.20;1843.20;;;;;;5033127;28;20022;-58
2021/05/07 11:01:27;;;;;;;5.03;4.18;;;487.20;1817.60;;;;;;5033386;28;20091;-59
2021/05/07 11:04:04;;;;;;;4.68;3.47;;;487.30;1792.00;;;;;;5033831;28;20037;-61
2021/05/07 11:06:35;;;;;;;5.22;3.58;;;512.10;1740.80;;;;;;5033700;28;20361;-58
2021/05/07 11:09:16;;;;;;;5.28;3.15;;;512.20;1740.80;;;;;;5033762;28;20021;-59
2021/05/07 11:11:43;;;;;;;3.95;2.90;;;512.30;1715.20;;;;;;5033745;28;20025;-64
2021/05/07 11:14:14;;;;;;;4.72;3.05;;;512.00;1715.20;;;;;;5033522;28;20029;-62
2021/05/07 11:16:44;;;;;;;10.23;7.53;;;487.20;1766.40;;;;;;5033549;28;20034;-60
2021/05/07 11:19:34;;;;;;;6.50;4.03;;;486.90;1766.40;;;;;;5033694;28;20033;-60
2021/05/07 11:22:03;;;;;;;4.35;3.15;;;486.40;1766.40;;;;;;5033194;28;20048;-61
2021/05/07 11:24:37;;;;;;;5.32;3.15;;;461.70;1792.00;;;;;;5033638;28;20049;-63
2021/05/07 11:27:19;;;;;;;4.57;2.97;;;461.50;1843.20;;;;;;5033350;28;20032;-58
2021/05/07 11:29:46;;;;;;;3.83;3.00;;;461.30;1843.20;;;;;;5031803;28;20025;-59
2021/05/07 11:32:17;;;;;;;4.03;2.95;;;461.20;1868.80;;;;;;5033510;28;20017;-62
2021/05/07 11:34:59;;;;;;;7.82;2.60;;;461.10;1868.80;;;;;;5032784;28;20022;-57
2021/05/07 11:37:27;;;;;;;3.35;2.72;;;461.00;1868.80;;;;;;5031148;28;20355;-63
2021/05/07 11:40:00;;;;;;;4.45;3.22;;;460.90;1868.80;;;;;;5033131;28;20104;-58
2021/05/07 11:42:47;;;;;;;4.38;2.28;;;460.90;1868.80;;;;;;5033559;28;20029;-59
2021/05/07 11:45:22;;;;;;;5.97;3.00;;;436.10;1843.20;;;;;;5033160;28;20028;-63
2021/05/07 11:47:48;;;;;;;3.40;2.17;;;436.00;1868.80;;;;;;5009297;28;20121;-63
2021/05/07 11:50:17;;;;;;;3.67;1.80;;;435.90;1843.20;;;;;;5027191;28;20021;-57
2021/05/07 11:52:45;;;;;;;3.03;1.70;;;435.70;1843.20;;;;;;5030990;28;20025;-59
2021/05/07 11:55:32;;;;;;;3.00;1.83;;;435.50;1843.20;;;;;;5032723;28;20036;-57
2021/05/07 11:58:07;;;;;;;2.80;1.70;;;435.30;1868.80;;;;;;5032806;28;20025;-62
2021/05/07 12:00:35;;;;;;;3.10;1.77;;;410.50;1894.40;;;;;;5032647;28;20052;-60
2021/05/07 12:03:02;;;;;;;3.92;2.00;;;410.50;1894.40;;;;;;5031939;28;20037;-62
2021/05/07 12:05:30;;;;;;;4.78;2.42;;;410.40;1920.00;;;;;;5031829;28;20565;-58
2021/05/07 12:07:56;;;;;;;3.20;1.80;;;410.40;1920.00;;;;;;5032384;28;20037;-62
2021/05/07 12:10:24;;;;;;;3.03;1.90;;;410.30;1894.40;;;;;;5032904;28;20022;-61
2021/05/07 12:12:49;;;;;;;4.35;1.60;;;410.10;1920.00;;;;;;5032536;28;20022;-58
2021/05/07 12:15:15;;;;;;;3.22;1.40;;;410.20;1920.00;;;;;;5032517;28;20025;-58
2021/05/07 12:17:47;;;;;;;3.10;1.33;;;410.10;1920.00;;;;;;5031633;28;20034;-59